createdAt,value
2022-12-27T00:01:00.825Z,1007.88
2022-12-27T00:06:43.866Z,1007.93
2022-12-27T00:12:26.745Z,1007.88
2022-12-27T00:18:10.705Z,1008
2022-12-27T00:23:55.029Z,1007.92
2022-12-27T00:29:37.921Z,1007.96
2022-12-27T00:35:20.842Z,1007.92
2022-12-27T00:41:03.865Z,1008.01
2022-12-27T00:46:46.580Z,1008.11
2022-12-27T00:52:29.405Z,1008.1
2022-12-27T00:58:12.544Z,1008.02
2022-12-27T01:03:55.486Z,1008.13
2022-12-27T01:09:39.820Z,1008.24
2022-12-27T01:15:22.766Z,1008.36
2022-12-27T01:21:09.711Z,1008.47
2022-12-27T01:26:52.507Z,1008.48
2022-12-27T01:32:36.705Z,1008.5
2022-12-27T01:38:19.573Z,1008.59
2022-12-27T01:44:02.291Z,1008.61
2022-12-27T01:49:47.175Z,1008.65
2022-12-27T01:55:32.382Z,1008.69
2022-12-27T02:01:18.308Z,1008.76
2022-12-27T02:07:02.023Z,1008.87
2022-12-27T02:12:44.952Z,1008.97
2022-12-27T02:18:27.970Z,1008.99
2022-12-27T02:24:18.758Z,1009.01
2022-12-27T02:30:03.814Z,1009.02
2022-12-27T02:35:51.078Z,1009.02
2022-12-27T02:41:35.870Z,1009.08
2022-12-27T02:47:21.997Z,1009
2022-12-27T02:53:08.530Z,1009.02
2022-12-27T02:58:58.470Z,1009.03
2022-12-27T03:04:49.036Z,1009.03
2022-12-27T03:10:36.403Z,1009.06
2022-12-27T03:16:23.858Z,1009.11
2022-12-27T03:22:08.442Z,1009.09
2022-12-27T03:27:52.235Z,1009.05
2022-12-27T03:33:37.352Z,1009.04
2022-12-27T03:39:25.411Z,1009.07
2022-12-27T03:45:08.865Z,1009.22
2022-12-27T03:50:54.567Z,1009.27
2022-12-27T03:56:37.938Z,1009.3
2022-12-27T04:02:21.445Z,1009.24
2022-12-27T04:08:05.205Z,1009.29
2022-12-27T04:13:48.123Z,1009.35
2022-12-27T04:19:30.828Z,1009.42
2022-12-27T04:25:13.724Z,1009.33
2022-12-27T04:30:56.666Z,1009.36
2022-12-27T04:36:39.631Z,1009.36
2022-12-27T04:42:22.351Z,1009.33
2022-12-27T04:48:05.619Z,1009.34
2022-12-27T04:53:48.570Z,1009.33
2022-12-27T04:59:32.620Z,1009.35
2022-12-27T05:05:15.678Z,1009.39
2022-12-27T05:10:58.651Z,1009.35
2022-12-27T05:16:42.073Z,1009.31
2022-12-27T05:22:24.907Z,1009.36
2022-12-27T05:28:08.536Z,1009.46
2022-12-27T05:33:51.765Z,1009.45
2022-12-27T05:39:34.774Z,1009.54
2022-12-27T05:45:17.834Z,1009.47
2022-12-27T05:51:04.762Z,1009.43
2022-12-27T05:56:47.643Z,1009.44
2022-12-27T06:02:31.425Z,1009.52
2022-12-27T06:08:15.007Z,1009.5
2022-12-27T06:13:57.928Z,1009.49
2022-12-27T06:19:40.752Z,1009.49
2022-12-27T06:25:23.510Z,1009.52
2022-12-27T06:31:06.528Z,1009.49
2022-12-27T06:36:49.311Z,1009.55
2022-12-27T06:42:33.190Z,1009.59
2022-12-27T06:48:16.046Z,1009.6
2022-12-27T06:53:58.934Z,1009.64
2022-12-27T06:59:42.032Z,1009.67
2022-12-27T07:05:29.222Z,1009.59
2022-12-27T07:11:13.169Z,1009.63
2022-12-27T07:16:56.275Z,1009.73
2022-12-27T07:22:40.376Z,1009.83
2022-12-27T07:28:24.034Z,1009.87
2022-12-27T07:34:07.738Z,1009.83
2022-12-27T07:39:50.586Z,1009.87
2022-12-27T07:45:33.398Z,1009.89
2022-12-27T07:51:16.873Z,1009.98
2022-12-27T07:56:59.804Z,1010.04
2022-12-27T08:02:43.134Z,1010.05
2022-12-27T08:08:28.500Z,1009.93
2022-12-27T08:14:11.406Z,1009.95
2022-12-27T08:19:55.802Z,1009.96
2022-12-27T08:25:44.825Z,1010
2022-12-27T08:31:31.512Z,1010.07
2022-12-27T08:37:14.347Z,1010.15
2022-12-27T08:42:57.184Z,1010.18
2022-12-27T08:48:40.463Z,1010.11
2022-12-27T08:54:24.416Z,1010.05
2022-12-27T09:00:08.429Z,1010.13
2022-12-27T09:05:51.492Z,1010.13
2022-12-27T09:11:34.952Z,1010.05
2022-12-27T09:17:17.879Z,1009.99
2022-12-27T09:23:00.920Z,1010.02
2022-12-27T09:28:44.222Z,1010.09
2022-12-27T09:34:27.137Z,1010.14
2022-12-27T09:40:14.295Z,1010.23
2022-12-27T09:45:57.728Z,1010.11
2022-12-27T09:51:44.022Z,1010.15
2022-12-27T09:57:31.516Z,1010.23
2022-12-27T10:03:14.355Z,1010.17
2022-12-27T10:09:01.566Z,1010.13
2022-12-27T10:14:51.052Z,1010.08
2022-12-27T10:20:40.402Z,1010.13
2022-12-27T10:26:23.401Z,1010.16
2022-12-27T10:32:09.183Z,1010.09
2022-12-27T10:37:52.267Z,1009.98
2022-12-27T10:43:37.286Z,1009.96
2022-12-27T10:49:26.597Z,1009.97
2022-12-27T10:55:17.250Z,1009.93
2022-12-27T11:01:00.390Z,1010.01
2022-12-27T11:06:44.858Z,1009.97
2022-12-27T11:12:27.771Z,1009.82
2022-12-27T11:18:18.757Z,1009.77
2022-12-27T11:24:02.485Z,1009.87
2022-12-27T11:29:46.218Z,1009.78
2022-12-27T11:35:29.260Z,1009.78
2022-12-27T11:41:15.758Z,1009.83
2022-12-27T11:47:14.471Z,1009.75
2022-12-27T11:53:03.418Z,1009.6
2022-12-27T11:58:54.345Z,1009.5
2022-12-27T12:04:48.905Z,1009.4
2022-12-27T12:10:37.250Z,1009.32
2022-12-27T12:16:31.227Z,1009.26
2022-12-27T12:22:31.952Z,1009.1
2022-12-27T12:34:43.004Z,1009.04
2022-12-27T12:40:33.246Z,1009
2022-12-27T12:46:20.868Z,1009.05
2022-12-27T12:52:13.788Z,1009.04
2022-12-27T12:58:00.507Z,1008.86
2022-12-27T13:03:54.971Z,1008.81
2022-12-27T13:09:51.941Z,1008.71
2022-12-27T13:15:42.048Z,1008.54
2022-12-27T13:21:31.011Z,1008.49
2022-12-27T13:27:20.171Z,1008.46
2022-12-27T13:33:09.820Z,1008.33
2022-12-27T13:39:06.531Z,1008.22
2022-12-27T13:44:54.640Z,1008.04
2022-12-27T13:50:57.843Z,1008.11
2022-12-27T13:56:55.067Z,1008.13
2022-12-27T14:02:48.478Z,1008.11
2022-12-27T14:08:37.437Z,1008.07
2022-12-27T14:14:21.114Z,1008.04
2022-12-27T14:20:11.064Z,1008.07
2022-12-27T14:26:08.350Z,1007.92
2022-12-27T14:31:59.653Z,1007.84
2022-12-27T14:37:54.041Z,1007.77
2022-12-27T14:43:47.937Z,1007.78
2022-12-27T14:49:52.787Z,1007.77
2022-12-27T14:55:49.344Z,1007.77
2022-12-27T15:01:39.823Z,1007.72
2022-12-27T15:07:32.731Z,1007.66
2022-12-27T15:13:18.082Z,1007.56
2022-12-27T15:19:09.172Z,1007.56
2022-12-27T15:24:56.222Z,1007.67
2022-12-27T15:30:44.682Z,1007.63
2022-12-27T15:36:32.918Z,1007.61
2022-12-27T15:42:21.157Z,1007.72
2022-12-27T15:48:18.175Z,1007.73
2022-12-27T15:54:10.046Z,1007.75
2022-12-27T15:59:53.797Z,1007.63
2022-12-27T16:05:50.513Z,1007.66
2022-12-27T16:11:45.131Z,1007.57
2022-12-27T16:17:33.568Z,1007.49
2022-12-27T16:23:22.080Z,1007.4
2022-12-27T16:29:07.739Z,1007.4
2022-12-27T16:34:51.693Z,1007.34
2022-12-27T16:40:45.416Z,1007.32
2022-12-27T16:46:42.407Z,1007.26
2022-12-27T16:52:41.838Z,1007.23
2022-12-27T16:58:33.175Z,1007.17
2022-12-27T17:04:21.038Z,1007.11
2022-12-27T17:10:18.812Z,1007.02
2022-12-27T17:16:05.337Z,1006.98
2022-12-27T17:21:54.438Z,1007.07
2022-12-27T17:27:49.222Z,1006.99
2022-12-27T17:33:37.510Z,1006.9
2022-12-27T17:39:27.464Z,1006.72
2022-12-27T17:45:17.113Z,1006.64
2022-12-27T17:51:01.585Z,1006.52
2022-12-27T17:56:48.515Z,1006.64
2022-12-27T18:02:34.526Z,1006.69
2022-12-27T18:08:26.907Z,1006.67
2022-12-27T18:14:13.970Z,1006.7
2022-12-27T18:19:57.472Z,1006.67
2022-12-27T18:25:45.326Z,1006.76
2022-12-27T18:31:30.902Z,1006.7
2022-12-27T18:37:16.880Z,1006.52
2022-12-27T18:42:59.922Z,1006.44
2022-12-27T18:48:43.282Z,1006.36
2022-12-27T18:54:31.937Z,1006.29
2022-12-27T19:00:19.734Z,1006.25
2022-12-27T19:06:06.979Z,1006.12
2022-12-27T19:11:55.077Z,1006.05
2022-12-27T19:17:38.929Z,1005.94
2022-12-27T19:23:29.565Z,1005.75
2022-12-27T19:29:14.890Z,1005.73
2022-12-27T19:34:58.894Z,1005.71
2022-12-27T19:40:41.935Z,1005.71
2022-12-27T19:46:31.241Z,1005.58
2022-12-27T19:52:17.055Z,1005.47
2022-12-27T19:57:59.843Z,1005.5
2022-12-27T20:03:42.586Z,1005.37
2022-12-27T20:09:25.633Z,1005.26
2022-12-27T20:15:09.231Z,1005.17
2022-12-27T20:20:52.532Z,1005.07
2022-12-27T20:26:35.411Z,1005.12
2022-12-27T20:32:18.391Z,1005.1
2022-12-27T20:38:01.625Z,1004.98
2022-12-27T20:43:44.812Z,1004.93
2022-12-27T20:49:27.965Z,1004.81
2022-12-27T20:55:12.400Z,1004.77
2022-12-27T21:00:55.464Z,1004.69
2022-12-27T21:06:38.518Z,1004.53
2022-12-27T21:12:21.402Z,1004.5
2022-12-27T21:18:04.659Z,1004.41
2022-12-27T21:23:47.752Z,1004.29
2022-12-27T21:29:30.585Z,1004.3
2022-12-27T21:35:13.550Z,1004.13
2022-12-27T21:41:00.759Z,1004.19
2022-12-27T21:46:43.817Z,1004.1
2022-12-27T21:52:30.663Z,1004.03
2022-12-27T21:58:13.605Z,1003.94
2022-12-27T22:03:56.924Z,1003.92
2022-12-27T22:09:39.906Z,1003.91
2022-12-27T22:15:22.999Z,1003.56
2022-12-27T22:21:10.634Z,1003.39
2022-12-27T22:26:53.700Z,1003.19
2022-12-27T22:32:38.424Z,1003.09
2022-12-27T22:38:21.286Z,1002.97
2022-12-27T22:44:05.216Z,1002.87
2022-12-27T22:49:48.062Z,1002.85
2022-12-27T22:55:30.860Z,1002.79
2022-12-27T23:01:21.450Z,1002.68
2022-12-27T23:07:04.608Z,1002.56
2022-12-27T23:12:48.538Z,1002.44
2022-12-27T23:18:32.267Z,1002.54
2022-12-27T23:24:16.222Z,1002.3
2022-12-27T23:29:59.007Z,1002.25
2022-12-27T23:35:42.013Z,1002.21
2022-12-27T23:41:25.691Z,1002.14
2022-12-27T23:47:08.620Z,1002.09
2022-12-27T23:52:51.458Z,1002.11
2022-12-27T23:58:34.293Z,1002.14
